Dillant Hopkins Airport Keene US
ICAO: KEEN
IATA: EEN
Category: Medium
Scheduled Services: No

Elevation: 488 ft
TransAlt. 18000 ft.

Airport Communications:
AWOS 3:119.025
BOSTON CNTR:123.75
BANGOR RDO:109.4
CTAF/UNICOM:123

KEEN Zoom In..

Runways:

(A) RW 02 length 6201 ft width 100 ft
ILS 108.90 / hdg 18

(B) RW 14 length 4001 ft width 150 ft
---- / hdg 142

(C) RW 20 length 6201 ft width 100 ft
---- / hdg 198

(D) RW 32 length 4001 ft width 150 ft
---- / hdg 322

Location; KEEN
Day. 03 / Time. 10.56 Zulu
* Altimeter: 29.90
* Temperature: 23° c. 73.4°f.
* Wind from: 220° Speed 05 kn.
Dewpoint: 22° c.
Visibility: 10 Statute Miles.
Clouds: Clear (automated report).

KEEN 031056Z AUTO 22005KT 10SM CLR 23/22 A2990 RMK AO2 SLP126 T02280217 $

Going to: --> -->


Wind From 220°
Speed 05 kn.

 
 
jpsmedia worldairports.se 2020   terms of use